sensor_id;sensor_type;location;lat;lon;timestamp;pressure;altitude;pressure_sealevel;temperature;humidity
2761;BME280;15420;48.636;9.798;2022-07-22T00:00:50;97111.88;;;22.10;76.13
2761;BME280;15420;48.636;9.798;2022-07-22T00:03:19;97108.41;;;22.08;76.13
2761;BME280;15420;48.636;9.798;2022-07-22T00:05:45;97112.00;;;22.01;76.27
2761;BME280;15420;48.636;9.798;2022-07-22T00:08:11;97103.34;;;21.96;76.86
2761;BME280;15420;48.636;9.798;2022-07-22T00:10:37;97107.78;;;21.93;76.93
2761;BME280;15420;48.636;9.798;2022-07-22T00:13:04;97107.00;;;21.87;76.45
2761;BME280;15420;48.636;9.798;2022-07-22T00:15:32;97107.13;;;21.83;77.50
2761;BME280;15420;48.636;9.798;2022-07-22T00:17:58;97107.19;;;21.80;78.00
2761;BME280;15420;48.636;9.798;2022-07-22T00:20:27;97101.09;;;21.78;77.63
2761;BME280;15420;48.636;9.798;2022-07-22T00:22:53;97096.78;;;21.75;77.60
2761;BME280;15420;48.636;9.798;2022-07-22T00:25:19;97098.56;;;21.73;77.94
2761;BME280;15420;48.636;9.798;2022-07-22T00:27:45;97098.66;;;21.69;78.11
2761;BME280;15420;48.636;9.798;2022-07-22T00:30:12;97093.41;;;21.69;79.06
2761;BME280;15420;48.636;9.798;2022-07-22T00:32:38;97093.44;;;21.67;79.44
2761;BME280;15420;48.636;9.798;2022-07-22T00:35:07;97090.84;;;21.64;79.48
2761;BME280;15420;48.636;9.798;2022-07-22T00:37:34;97094.38;;;21.63;79.39
2761;BME280;15420;48.636;9.798;2022-07-22T00:40:00;97090.00;;;21.64;78.47
2761;BME280;15420;48.636;9.798;2022-07-22T00:42:31;97093.50;;;21.63;78.77
2761;BME280;15420;48.636;9.798;2022-07-22T00:44:59;97089.16;;;21.62;79.44
2761;BME280;15420;48.636;9.798;2022-07-22T00:47:25;97089.19;;;21.60;78.96
2761;BME280;15420;48.636;9.798;2022-07-22T00:49:51;97087.47;;;21.58;78.99
2761;BME280;15420;48.636;9.798;2022-07-22T00:52:19;97091.00;;;21.55;79.40
2761;BME280;15420;48.636;9.798;2022-07-22T00:54:51;97091.09;;;21.50;79.74
2761;BME280;15420;48.636;9.798;2022-07-22T00:57:22;97087.66;;;21.47;79.99
2761;BME280;15420;48.636;9.798;2022-07-22T00:59:48;97083.34;;;21.44;79.07
2761;BME280;15420;48.636;9.798;2022-07-22T01:02:14;97090.41;;;21.39;80.02
2761;BME280;15420;48.636;9.798;2022-07-22T01:04:43;97083.47;;;21.35;80.14
2761;BME280;15420;48.636;9.798;2022-07-22T01:07:09;97081.81;;;21.31;80.69
2761;BME280;15420;48.636;9.798;2022-07-22T01:09:35;97075.75;;;21.28;79.86
2761;BME280;15420;48.636;9.798;2022-07-22T01:12:04;97073.19;;;21.25;81.02
2761;BME280;15420;48.636;9.798;2022-07-22T01:14:32;97065.34;;;21.23;81.20
2761;BME280;15420;48.636;9.798;2022-07-22T01:17:01;97064.50;;;21.19;80.58
2761;BME280;15420;48.636;9.798;2022-07-22T01:19:29;97072.34;;;21.19;81.82
2761;BME280;15420;48.636;9.798;2022-07-22T01:21:56;97065.38;;;21.18;81.44
2761;BME280;15420;48.636;9.798;2022-07-22T01:24:22;97060.16;;;21.17;81.73
2761;BME280;15420;48.636;9.798;2022-07-22T01:26:51;97063.66;;;21.16;82.07
2761;BME280;15420;48.636;9.798;2022-07-22T01:29:19;97072.44;;;21.15;82.16
2761;BME280;15420;48.636;9.798;2022-07-22T01:31:50;97066.38;;;21.11;81.57
2761;BME280;15420;48.636;9.798;2022-07-22T01:34:16;97070.78;;;21.08;81.89
2761;BME280;15420;48.636;9.798;2022-07-22T01:36:43;97069.09;;;21.05;82.10
2761;BME280;15420;48.636;9.798;2022-07-22T01:39:11;97063.88;;;21.04;82.14
2761;BME280;15420;48.636;9.798;2022-07-22T01:41:37;97068.28;;;21.02;82.11
2761;BME280;15420;48.636;9.798;2022-07-22T01:44:04;97069.19;;;20.99;82.27
2761;BME280;15420;48.636;9.798;2022-07-22T01:46:30;97073.56;;;20.97;81.37
2761;BME280;15420;48.636;9.798;2022-07-22T01:48:57;97064.91;;;20.94;82.26
2761;BME280;15420;48.636;9.798;2022-07-22T01:51:23;97064.06;;;20.90;81.62
2761;BME280;15420;48.636;9.798;2022-07-22T01:53:53;97062.38;;;20.87;82.35
2761;BME280;15420;48.636;9.798;2022-07-22T01:56:19;97060.69;;;20.83;82.57
2761;BME280;15420;48.636;9.798;2022-07-22T01:58:46;97055.53;;;20.79;82.28
2761;BME280;15420;48.636;9.798;2022-07-22T02:01:12;97059.97;;;20.75;83.16
2761;BME280;15420;48.636;9.798;2022-07-22T02:03:38;97059.16;;;20.72;82.75
2761;BME280;15420;48.636;9.798;2022-07-22T02:06:07;97055.72;;;20.68;84.04
2761;BME280;15420;48.636;9.798;2022-07-22T02:08:35;97055.75;;;20.65;83.37
2761;BME280;15420;48.636;9.798;2022-07-22T02:11:01;97054.94;;;20.62;84.63
2761;BME280;15420;48.636;9.798;2022-07-22T02:13:27;97053.19;;;20.61;85.31
2761;BME280;15420;48.636;9.798;2022-07-22T02:15:56;97051.47;;;20.58;85.16
2761;BME280;15420;48.636;9.798;2022-07-22T02:18:24;97051.50;;;20.56;85.18
2761;BME280;15420;48.636;9.798;2022-07-22T02:20:51;97048.03;;;20.54;84.50
2761;BME280;15420;48.636;9.798;2022-07-22T02:23:18;97049.81;;;20.52;85.16
2761;BME280;15420;48.636;9.798;2022-07-22T02:25:47;97046.41;;;20.47;84.67
2761;BME280;15420;48.636;9.798;2022-07-22T02:28:15;97050.75;;;20.47;86.06
2761;BME280;15420;48.636;9.798;2022-07-22T02:30:41;97042.91;;;20.47;85.28
2761;BME280;15420;48.636;9.798;2022-07-22T02:33:07;97042.03;;;20.46;85.55
2761;BME280;15420;48.636;9.798;2022-07-22T02:35:34;97043.78;;;20.47;86.00
2761;BME280;15420;48.636;9.798;2022-07-22T02:38:03;97033.31;;;20.46;85.86
2761;BME280;15420;48.636;9.798;2022-07-22T02:40:29;97033.31;;;20.46;85.83
2761;BME280;15420;48.636;9.798;2022-07-22T02:42:55;97036.00;;;20.43;85.89
2761;BME280;15420;48.636;9.798;2022-07-22T02:45:21;97029.88;;;20.42;85.67
2761;BME280;15420;48.636;9.798;2022-07-22T02:47:54;97036.91;;;20.39;84.79
2761;BME280;15420;48.636;9.798;2022-07-22T02:50:24;97038.69;;;20.35;84.86
2761;BME280;15420;48.636;9.798;2022-07-22T02:52:53;97035.25;;;20.30;85.27
2761;BME280;15420;48.636;9.798;2022-07-22T02:55:21;97039.66;;;20.28;86.04
2761;BME280;15420;48.636;9.798;2022-07-22T02:57:47;97035.34;;;20.24;85.77
2761;BME280;15420;48.636;9.798;2022-07-22T03:00:18;97033.72;;;20.14;85.69
2761;BME280;15420;48.636;9.798;2022-07-22T03:02:47;97044.16;;;20.15;86.46
2761;BME280;15420;48.636;9.798;2022-07-22T03:05:13;97045.97;;;20.12;86.78
2761;BME280;15420;48.636;9.798;2022-07-22T03:07:42;97045.16;;;20.07;86.34
2761;BME280;15420;48.636;9.798;2022-07-22T03:10:08;97056.50;;;20.04;86.96
2761;BME280;15420;48.636;9.798;2022-07-22T03:12:34;97047.81;;;20.02;87.26
2761;BME280;15420;48.636;9.798;2022-07-22T03:15:00;97044.34;;;20.00;87.37
2761;BME280;15420;48.636;9.798;2022-07-22T03:17:32;97047.00;;;19.97;87.95
2761;BME280;15420;48.636;9.798;2022-07-22T03:20:05;97043.53;;;19.95;88.07
2761;BME280;15420;48.636;9.798;2022-07-22T03:22:32;97034.84;;;19.93;87.88
2761;BME280;15420;48.636;9.798;2022-07-22T03:24:59;97035.72;;;19.92;88.01
2761;BME280;15420;48.636;9.798;2022-07-22T03:27:25;97047.06;;;19.91;88.53
2761;BME280;15420;48.636;9.798;2022-07-22T03:29:51;97038.38;;;19.90;88.94
2761;BME280;15420;48.636;9.798;2022-07-22T03:32:18;97040.13;;;19.90;89.16
2761;BME280;15420;48.636;9.798;2022-07-22T03:34:46;97047.09;;;19.88;88.91
2761;BME280;15420;48.636;9.798;2022-07-22T03:37:12;97041.00;;;19.87;88.96
2761;BME280;15420;48.636;9.798;2022-07-22T03:39:39;97041.03;;;19.86;88.62
2761;BME280;15420;48.636;9.798;2022-07-22T03:42:05;97039.28;;;19.85;88.85
2761;BME280;15420;48.636;9.798;2022-07-22T03:44:31;97045.41;;;19.84;88.40
2761;BME280;15420;48.636;9.798;2022-07-22T03:46:59;97051.53;;;19.83;88.79
2761;BME280;15420;48.636;9.798;2022-07-22T03:49:26;97041.97;;;19.80;88.58
2761;BME280;15420;48.636;9.798;2022-07-22T03:51:58;97043.72;;;19.80;89.11
2761;BME280;15420;48.636;9.798;2022-07-22T03:54:24;97042.00;;;19.77;89.12
2761;BME280;15420;48.636;9.798;2022-07-22T03:56:50;97040.31;;;19.75;89.14
2761;BME280;15420;48.636;9.798;2022-07-22T03:59:17;97044.69;;;19.73;89.13
2761;BME280;15420;48.636;9.798;2022-07-22T04:01:45;97049.94;;;19.73;88.96
2761;BME280;15420;48.636;9.798;2022-07-22T04:04:12;97048.19;;;19.72;89.10
2761;BME280;15420;48.636;9.798;2022-07-22T04:06:38;97049.94;;;19.71;89.77
2761;BME280;15420;48.636;9.798;2022-07-22T04:09:06;97053.44;;;19.72;89.18
2761;BME280;15420;48.636;9.798;2022-07-22T04:11:32;97050.81;;;19.72;89.57
2761;BME280;15420;48.636;9.798;2022-07-22T04:13:58;97048.22;;;19.70;88.98
2761;BME280;15420;48.636;9.798;2022-07-22T04:16:26;97049.06;;;19.71;89.12
2761;BME280;15420;48.636;9.798;2022-07-22T04:18:52;97047.34;;;19.68;89.32
2761;BME280;15420;48.636;9.798;2022-07-22T04:21:23;97050.84;;;19.67;89.82
2761;BME280;15420;48.636;9.798;2022-07-22T04:23:49;97046.53;;;19.65;89.32
2761;BME280;15420;48.636;9.798;2022-07-22T04:26:15;97043.97;;;19.58;90.02
2761;BME280;15420;48.636;9.798;2022-07-22T04:28:43;97044.81;;;19.62;89.67
2761;BME280;15420;48.636;9.798;2022-07-22T04:31:10;97046.56;;;19.62;89.86
2761;BME280;15420;48.636;9.798;2022-07-22T04:33:36;97046.56;;;19.60;90.90
2761;BME280;15420;48.636;9.798;2022-07-22T04:36:02;97046.56;;;19.60;90.59
2761;BME280;15420;48.636;9.798;2022-07-22T04:38:28;97046.59;;;19.58;90.66
2761;BME280;15420;48.636;9.798;2022-07-22T04:40:54;97047.47;;;19.59;91.04
2761;BME280;15420;48.636;9.798;2022-07-22T04:43:21;97047.47;;;19.59;90.57
2761;BME280;15420;48.636;9.798;2022-07-22T04:45:47;97045.72;;;19.59;90.71
2761;BME280;15420;48.636;9.798;2022-07-22T04:48:16;97036.97;;;19.62;90.84
2761;BME280;15420;48.636;9.798;2022-07-22T04:50:43;97034.38;;;19.61;91.04
2761;BME280;15420;48.636;9.798;2022-07-22T04:53:09;97040.47;;;19.61;91.44
2761;BME280;15420;48.636;9.798;2022-07-22T04:55:36;97035.22;;;19.63;90.71
2761;BME280;15420;48.636;9.798;2022-07-22T04:58:02;97040.44;;;19.64;91.20
2761;BME280;15420;48.636;9.798;2022-07-22T05:00:28;97032.59;;;19.64;91.03
2761;BME280;15420;48.636;9.798;2022-07-22T05:02:57;97029.97;;;19.66;90.52
2761;BME280;15420;48.636;9.798;2022-07-22T05:05:23;97025.56;;;19.68;90.50
2761;BME280;15420;48.636;9.798;2022-07-22T05:07:49;97022.94;;;19.71;90.53
2761;BME280;15420;48.636;9.798;2022-07-22T05:10:18;97023.78;;;19.71;91.15
2761;BME280;15420;48.636;9.798;2022-07-22T05:12:47;97029.81;;;19.76;90.77
2761;BME280;15420;48.636;9.798;2022-07-22T05:15:15;97023.69;;;19.79;91.16
2761;BME280;15420;48.636;9.798;2022-07-22T05:17:44;97024.50;;;19.84;91.02
2761;BME280;15420;48.636;9.798;2022-07-22T05:20:15;97017.50;;;19.86;90.85
2761;BME280;15420;48.636;9.798;2022-07-22T05:22:43;97026.16;;;19.89;90.39
2761;BME280;15420;48.636;9.798;2022-07-22T05:25:12;97024.41;;;19.91;90.33
2761;BME280;15420;48.636;9.798;2022-07-22T05:27:43;97028.72;;;19.96;89.96
2761;BME280;15420;48.636;9.798;2022-07-22T05:30:14;97028.66;;;20.00;89.82
2761;BME280;15420;48.636;9.798;2022-07-22T05:32:43;97027.72;;;20.04;90.78
2761;BME280;15420;48.636;9.798;2022-07-22T05:35:09;97032.06;;;20.07;89.89
2761;BME280;15420;48.636;9.798;2022-07-22T05:37:36;97035.50;;;20.12;89.69
2761;BME280;15420;48.636;9.798;2022-07-22T05:40:04;97031.09;;;20.14;89.85
2761;BME280;15420;48.636;9.798;2022-07-22T05:42:30;97028.47;;;20.15;90.61
2761;BME280;15420;48.636;9.798;2022-07-22T05:44:56;97033.63;;;20.20;90.03
2761;BME280;15420;48.636;9.798;2022-07-22T05:47:25;97023.16;;;20.21;89.16
2761;BME280;15420;48.636;9.798;2022-07-22T05:49:54;97029.22;;;20.25;89.64
2761;BME280;15420;48.636;9.798;2022-07-22T05:52:20;97023.94;;;20.28;90.06
2761;BME280;15420;48.636;9.798;2022-07-22T05:54:47;97023.91;;;20.31;89.97
2761;BME280;15420;48.636;9.798;2022-07-22T05:57:15;97016.88;;;20.35;89.85
2761;BME280;15420;48.636;9.798;2022-07-22T05:59:41;97020.34;;;20.38;89.18
2761;BME280;15420;48.636;9.798;2022-07-22T06:02:08;97021.13;;;20.45;89.31
2761;BME280;15420;48.636;9.798;2022-07-22T06:04:34;97019.31;;;20.48;89.17
2761;BME280;15420;48.636;9.798;2022-07-22T06:07:03;97018.38;;;20.54;89.43
2761;BME280;15420;48.636;9.798;2022-07-22T06:09:32;97025.31;;;20.56;88.87
2761;BME280;15420;48.636;9.798;2022-07-22T06:12:00;97023.50;;;20.62;89.25
2761;BME280;15420;48.636;9.798;2022-07-22T06:14:29;97020.81;;;20.66;89.11
2761;BME280;15420;48.636;9.798;2022-07-22T06:16:58;97025.97;;;20.71;88.66
2761;BME280;15420;48.636;9.798;2022-07-22T06:19:24;97027.66;;;20.75;88.70
2761;BME280;15420;48.636;9.798;2022-07-22T06:21:55;97025.88;;;20.78;89.07
2761;BME280;15420;48.636;9.798;2022-07-22T06:24:23;97024.88;;;20.84;88.14
2761;BME280;15420;48.636;9.798;2022-07-22T06:26:51;97023.06;;;20.89;88.42
2761;BME280;15420;48.636;9.798;2022-07-22T06:29:18;97028.25;;;20.92;88.63
2761;BME280;15420;48.636;9.798;2022-07-22T06:31:44;97017.75;;;20.92;87.92
2761;BME280;15420;48.636;9.798;2022-07-22T06:34:14;97024.59;;;21.02;87.29
2761;BME280;15420;48.636;9.798;2022-07-22T06:36:41;97029.75;;;21.07;87.65
2761;BME280;15420;48.636;9.798;2022-07-22T06:39:07;97027.91;;;21.12;87.14
2761;BME280;15420;48.636;9.798;2022-07-22T06:41:36;97028.66;;;21.20;86.27
2761;BME280;15420;48.636;9.798;2022-07-22T06:44:04;97026.00;;;21.23;86.17
2761;BME280;15420;48.636;9.798;2022-07-22T06:46:30;97024.16;;;21.30;86.85
2761;BME280;15420;48.636;9.798;2022-07-22T06:48:58;97031.03;;;21.35;86.27
2761;BME280;15420;48.636;9.798;2022-07-22T06:51:27;97025.69;;;21.41;85.59
2761;BME280;15420;48.636;9.798;2022-07-22T06:53:53;97031.75;;;21.45;86.02
2761;BME280;15420;48.636;9.798;2022-07-22T06:56:22;97026.44;;;21.49;85.22
2761;BME280;15420;48.636;9.798;2022-07-22T06:58:50;97026.31;;;21.56;84.45
2761;BME280;15420;48.636;9.798;2022-07-22T07:01:19;97025.31;;;21.63;84.38
2761;BME280;15420;48.636;9.798;2022-07-22T07:03:45;97030.47;;;21.67;84.98
2761;BME280;15420;48.636;9.798;2022-07-22T07:06:12;97024.25;;;21.73;84.53
2761;BME280;15420;48.636;9.798;2022-07-22T07:08:41;97020.63;;;21.78;83.91
2761;BME280;15420;48.636;9.798;2022-07-22T07:11:10;97022.22;;;21.85;84.36
2761;BME280;15420;48.636;9.798;2022-07-22T07:13:36;97016.00;;;21.90;84.33
2761;BME280;15420;48.636;9.798;2022-07-22T07:16:02;97014.13;;;21.96;83.69
2761;BME280;15420;48.636;9.798;2022-07-22T07:18:28;97012.28;;;22.03;83.02
2761;BME280;15420;48.636;9.798;2022-07-22T07:20:54;97007.75;;;22.09;82.97
2761;BME280;15420;48.636;9.798;2022-07-22T07:23:23;97007.63;;;22.15;82.92
2761;BME280;15420;48.636;9.798;2022-07-22T07:25:50;97009.25;;;22.21;82.79
2761;BME280;15420;48.636;9.798;2022-07-22T07:28:16;97004.78;;;22.26;83.11
2761;BME280;15420;48.636;9.798;2022-07-22T07:30:42;96999.41;;;22.32;82.36
2761;BME280;15420;48.636;9.798;2022-07-22T07:33:11;97001.03;;;22.38;82.85
2761;BME280;15420;48.636;9.798;2022-07-22T07:35:40;97000.00;;;22.45;82.01
2761;BME280;15420;48.636;9.798;2022-07-22T07:38:08;96994.59;;;22.51;82.00
2761;BME280;15420;48.636;9.798;2022-07-22T07:40:34;96990.03;;;22.59;81.70
2761;BME280;15420;48.636;9.798;2022-07-22T07:43:03;96994.25;;;22.66;81.38
2761;BME280;15420;48.636;9.798;2022-07-22T07:45:32;96988.81;;;22.74;81.01
2761;BME280;15420;48.636;9.798;2022-07-22T07:47:59;96980.78;;;22.81;80.71
2761;BME280;15420;48.636;9.798;2022-07-22T07:50:28;96984.06;;;22.90;80.30
2761;BME280;15420;48.636;9.798;2022-07-22T07:52:56;96968.13;;;22.96;80.39
2761;BME280;15420;48.636;9.798;2022-07-22T07:55:23;96975.78;;;23.05;80.54
2761;BME280;15420;48.636;9.798;2022-07-22T07:57:50;96972.97;;;23.12;80.20
2761;BME280;15420;48.636;9.798;2022-07-22T08:00:19;96971.88;;;23.21;79.89
2761;BME280;15420;48.636;9.798;2022-07-22T08:02:48;96973.44;;;23.28;79.81
2761;BME280;15420;48.636;9.798;2022-07-22T08:05:15;96963.56;;;23.36;79.27
2761;BME280;15420;48.636;9.798;2022-07-22T08:07:48;96963.31;;;23.45;79.33
2761;BME280;15420;48.636;9.798;2022-07-22T08:10:18;96956.94;;;23.56;78.89
2761;BME280;15420;48.636;9.798;2022-07-22T08:12:48;96959.38;;;23.63;78.25
2761;BME280;15420;48.636;9.798;2022-07-22T08:15:15;96958.19;;;23.73;77.94
2761;BME280;15420;48.636;9.798;2022-07-22T08:17:44;96959.72;;;23.82;77.48
2761;BME280;15420;48.636;9.798;2022-07-22T08:20:13;96960.22;;;23.93;76.47
2761;BME280;15420;48.636;9.798;2022-07-22T08:22:39;96964.38;;;24.02;76.18
2761;BME280;15420;48.636;9.798;2022-07-22T08:25:10;96958.84;;;24.11;75.44
2761;BME280;15420;48.636;9.798;2022-07-22T08:27:36;96959.47;;;24.19;74.87
2761;BME280;15420;48.636;9.798;2022-07-22T08:30:06;96963.59;;;24.29;73.61
2761;BME280;15420;48.636;9.798;2022-07-22T08:32:33;96963.25;;;24.40;73.00
2761;BME280;15420;48.636;9.798;2022-07-22T08:35:04;96968.25;;;24.49;72.00
2761;BME280;15420;48.636;9.798;2022-07-22T08:37:30;96964.44;;;24.58;70.15
2761;BME280;15420;48.636;9.798;2022-07-22T08:39:57;96965.03;;;24.67;69.20
2761;BME280;15420;48.636;9.798;2022-07-22T08:42:27;96977.81;;;24.80;68.53
2761;BME280;15420;48.636;9.798;2022-07-22T08:44:55;96963.47;;;24.88;67.98
2761;BME280;15420;48.636;9.798;2022-07-22T08:47:25;96962.16;;;25.01;67.53
2761;BME280;15420;48.636;9.798;2022-07-22T08:49:53;96955.59;;;25.13;66.92
2761;BME280;15420;48.636;9.798;2022-07-22T08:52:22;96953.47;;;25.24;65.32
2761;BME280;15420;48.636;9.798;2022-07-22T08:54:48;96943.41;;;25.35;64.02
2761;BME280;15420;48.636;9.798;2022-07-22T08:57:19;96936.78;;;25.49;63.00
2761;BME280;15420;48.636;9.798;2022-07-22T08:59:57;96935.47;;;25.60;62.49
2761;BME280;15420;48.636;9.798;2022-07-22T09:02:25;96938.69;;;25.70;61.09
2761;BME280;15420;48.636;9.798;2022-07-22T09:07:26;96933.47;;;25.92;59.39
2761;BME280;15420;48.636;9.798;2022-07-22T09:09:52;96930.31;;;26.04;58.90
2761;BME280;15420;48.636;9.798;2022-07-22T09:12:18;96929.88;;;26.16;58.52
2761;BME280;15420;48.636;9.798;2022-07-22T09:14:53;96929.31;;;26.30;57.71
2761;BME280;15420;48.636;9.798;2022-07-22T09:17:25;96927.97;;;26.43;57.45
2761;BME280;15420;48.636;9.798;2022-07-22T09:19:51;96916.97;;;26.54;56.64
2761;BME280;15420;48.636;9.798;2022-07-22T09:22:40;96920.72;;;26.70;56.24
2761;BME280;15420;48.636;9.798;2022-07-22T09:25:23;96919.41;;;26.80;56.08
2761;BME280;15420;48.636;9.798;2022-07-22T09:27:50;96913.66;;;26.91;55.63
2761;BME280;15420;48.636;9.798;2022-07-22T09:30:25;96915.59;;;27.08;54.73
2761;BME280;15420;48.636;9.798;2022-07-22T09:32:53;96919.66;;;27.16;54.52
2761;BME280;15420;48.636;9.798;2022-07-22T09:35:27;96921.78;;;27.28;53.65
2761;BME280;15420;48.636;9.798;2022-07-22T09:37:54;96913.44;;;27.38;53.61
2761;BME280;15420;48.636;9.798;2022-07-22T09:40:28;96917.31;;;27.49;53.53
2761;BME280;15420;48.636;9.798;2022-07-22T09:42:56;96918.69;;;27.59;53.03
2761;BME280;15420;48.636;9.798;2022-07-22T09:45:26;96919.91;;;27.71;52.26
2761;BME280;15420;48.636;9.798;2022-07-22T09:47:56;96925.59;;;27.82;51.96
2761;BME280;15420;48.636;9.798;2022-07-22T09:50:30;96921.59;;;27.92;50.92
2761;BME280;15420;48.636;9.798;2022-07-22T09:52:58;96928.13;;;28.04;50.80
2761;BME280;15420;48.636;9.798;2022-07-22T09:55:25;96927.59;;;28.15;50.17
2761;BME280;15420;48.636;9.798;2022-07-22T09:57:55;96927.06;;;28.27;49.48
2761;BME280;15420;48.636;9.798;2022-07-22T10:00:25;96923.81;;;28.39;49.74
2761;BME280;15420;48.636;9.798;2022-07-22T10:03:00;96916.00;;;28.55;48.35
2761;BME280;15420;48.636;9.798;2022-07-22T10:05:32;96914.53;;;28.67;48.54
2761;BME280;15420;48.636;9.798;2022-07-22T10:08:00;96911.28;;;28.79;47.91
2761;BME280;15420;48.636;9.798;2022-07-22T10:10:28;96906.19;;;28.93;47.13
2761;BME280;15420;48.636;9.798;2022-07-22T10:13:01;96903.63;;;29.09;46.61
2761;BME280;15420;48.636;9.798;2022-07-22T10:15:29;96908.97;;;29.24;47.23
2761;BME280;15420;48.636;9.798;2022-07-22T10:17:59;96897.34;;;29.44;45.78
2761;BME280;15420;48.636;9.798;2022-07-22T10:20:28;96900.66;;;29.65;45.87
2761;BME280;15420;48.636;9.798;2022-07-22T10:25:27;96898.47;;;30.06;44.07
2761;BME280;15420;48.636;9.798;2022-07-22T10:27:59;96899.91;;;30.27;43.18
2761;BME280;15420;48.636;9.798;2022-07-22T10:30:34;96887.81;;;30.53;42.80
2761;BME280;15420;48.636;9.798;2022-07-22T10:33:15;96890.81;;;30.79;42.36
2761;BME280;15420;48.636;9.798;2022-07-22T10:38:12;96891.91;;;31.20;41.25
2761;BME280;15420;48.636;9.798;2022-07-22T10:40:49;96889.66;;;31.43;40.70
2761;BME280;15420;48.636;9.798;2022-07-22T10:43:20;96884.06;;;31.62;39.93
2761;BME280;15420;48.636;9.798;2022-07-22T10:45:49;96878.38;;;31.82;39.58
2761;BME280;15420;48.636;9.798;2022-07-22T10:48:24;96879.72;;;32.03;39.60
2761;BME280;15420;48.636;9.798;2022-07-22T10:51:17;96871.84;;;32.29;38.14
2761;BME280;15420;48.636;9.798;2022-07-22T10:54:00;96877.50;;;32.51;37.80
2761;BME280;15420;48.636;9.798;2022-07-22T10:56:28;96875.25;;;32.72;37.32
2761;BME280;15420;48.636;9.798;2022-07-22T10:59:12;96869.91;;;32.99;35.87
2761;BME280;15420;48.636;9.798;2022-07-22T11:01:44;96873.06;;;33.18;36.02
2761;BME280;15420;48.636;9.798;2022-07-22T11:04:21;96874.16;;;33.41;35.39
2761;BME280;15420;48.636;9.798;2022-07-22T11:06:52;96860.03;;;33.64;34.75
2761;BME280;15420;48.636;9.798;2022-07-22T11:09:21;96862.72;;;33.90;35.15
2761;BME280;15420;48.636;9.798;2022-07-22T11:11:52;96869.00;;;34.14;34.49
2761;BME280;15420;48.636;9.798;2022-07-22T11:17:07;96871.50;;;34.65;33.84
2761;BME280;15420;48.636;9.798;2022-07-22T11:19:39;96861.78;;;34.88;32.84
2761;BME280;15420;48.636;9.798;2022-07-22T11:22:08;96857.34;;;35.11;32.54
2761;BME280;15420;48.636;9.798;2022-07-22T11:24:38;96849.53;;;35.31;32.19
2761;BME280;15420;48.636;9.798;2022-07-22T11:27:18;96854.03;;;35.53;31.73
2761;BME280;15420;48.636;9.798;2022-07-22T11:29:49;96853.09;;;35.77;30.79
2761;BME280;15420;48.636;9.798;2022-07-22T11:32:16;96855.81;;;35.99;30.79
2761;BME280;15420;48.636;9.798;2022-07-22T11:34:46;96848.34;;;36.25;30.19
2761;BME280;15420;48.636;9.798;2022-07-22T11:37:18;96844.63;;;36.48;29.69
2761;BME280;15420;48.636;9.798;2022-07-22T11:39:47;96837.88;;;36.65;29.39
2761;BME280;15420;48.636;9.798;2022-07-22T11:42:15;96829.63;;;36.89;28.74
2761;BME280;15420;48.636;9.798;2022-07-22T11:44:44;96833.31;;;37.09;28.61
2761;BME280;15420;48.636;9.798;2022-07-22T11:47:11;96824.69;;;37.26;28.16
2761;BME280;15420;48.636;9.798;2022-07-22T11:49:40;96829.91;;;37.48;28.22
2761;BME280;15420;48.636;9.798;2022-07-22T11:52:10;96825.94;;;37.73;28.47
2761;BME280;15420;48.636;9.798;2022-07-22T11:54:42;96827.59;;;37.95;27.73
2761;BME280;15420;48.636;9.798;2022-07-22T11:57:09;96823.88;;;38.17;27.59
2761;BME280;15420;48.636;9.798;2022-07-22T11:59:35;96822.66;;;38.40;27.53
2761;BME280;15420;48.636;9.798;2022-07-22T12:02:05;96811.47;;;38.64;26.76
2761;BME280;15420;48.636;9.798;2022-07-22T12:04:36;96803.41;;;38.83;26.39
2761;BME280;15420;48.636;9.798;2022-07-22T12:07:03;96804.56;;;39.10;25.84
2761;BME280;15420;48.636;9.798;2022-07-22T12:09:35;96805.22;;;39.31;25.83
2761;BME280;15420;48.636;9.798;2022-07-22T12:12:03;96798.53;;;39.45;25.34
2761;BME280;15420;48.636;9.798;2022-07-22T12:14:32;96807.09;;;39.68;25.23
2761;BME280;15420;48.636;9.798;2022-07-22T12:17:08;96805.63;;;39.93;24.46
2761;BME280;15420;48.636;9.798;2022-07-22T12:19:39;96795.25;;;40.15;24.78
2761;BME280;15420;48.636;9.798;2022-07-22T12:27:04;96800.28;;;40.91;23.69
2761;BME280;15420;48.636;9.798;2022-07-22T12:32:11;96792.59;;;41.40;23.68
2761;BME280;15420;48.636;9.798;2022-07-22T12:34:46;96795.44;;;41.64;23.05
2761;BME280;15420;48.636;9.798;2022-07-22T12:39:39;96800.69;;;42.00;22.30
2761;BME280;15420;48.636;9.798;2022-07-22T12:42:16;96798.13;;;42.24;22.55
2761;BME280;15420;48.636;9.798;2022-07-22T12:44:59;96788.56;;;42.46;21.85
2761;BME280;15420;48.636;9.798;2022-07-22T12:50:42;96783.19;;;42.95;21.36
2761;BME280;15420;48.636;9.798;2022-07-22T12:53:13;96784.03;;;43.12;20.69
2761;BME280;15420;48.636;9.798;2022-07-22T12:55:43;96784.88;;;43.36;20.72
2761;BME280;15420;48.636;9.798;2022-07-22T12:58:10;96788.09;;;43.64;20.71
2761;BME280;15420;48.636;9.798;2022-07-22T13:00:39;96780.66;;;43.89;20.23
2761;BME280;15420;48.636;9.798;2022-07-22T13:03:08;96784.34;;;44.13;20.10
2761;BME280;15420;48.636;9.798;2022-07-22T13:05:34;96773.69;;;44.34;19.71
2761;BME280;15420;48.636;9.798;2022-07-22T13:08:04;96778.34;;;44.56;19.29
2761;BME280;15420;48.636;9.798;2022-07-22T13:10:33;96773.06;;;44.78;18.96
2761;BME280;15420;48.636;9.798;2022-07-22T13:12:59;96777.19;;;44.96;19.02
2761;BME280;15420;48.636;9.798;2022-07-22T13:15:25;96769.03;;;45.19;18.91
2761;BME280;15420;48.636;9.798;2022-07-22T13:17:51;96757.22;;;45.42;18.37
2761;BME280;15420;48.636;9.798;2022-07-22T13:20:18;96771.00;;;45.63;17.58
2761;BME280;15420;48.636;9.798;2022-07-22T13:22:45;96771.06;;;45.84;17.54
2761;BME280;15420;48.636;9.798;2022-07-22T13:25:16;96767.13;;;46.02;16.94
2761;BME280;15420;48.636;9.798;2022-07-22T13:27:45;96768.88;;;46.24;17.21
2761;BME280;15420;48.636;9.798;2022-07-22T13:30:14;96764.13;;;46.47;17.54
2761;BME280;15420;48.636;9.798;2022-07-22T13:32:40;96755.81;;;46.70;17.41
2761;BME280;15420;48.636;9.798;2022-07-22T13:35:06;96756.63;;;46.92;17.66
2761;BME280;15420;48.636;9.798;2022-07-22T13:37:34;96765.22;;;47.10;16.84
2761;BME280;15420;48.636;9.798;2022-07-22T13:40:03;96759.72;;;47.32;16.89